createdAt,value
2018-11-06T06:36:07.245Z,47.10
2018-11-06T06:41:14.043Z,59.87
2018-11-06T06:46:19.986Z,48.00
2018-11-06T06:51:34.576Z,44.37
2018-11-06T06:56:42.519Z,55.60
2018-11-06T07:01:49.772Z,48.60
2018-11-06T07:07:01.736Z,47.20
2018-11-06T07:12:12.508Z,50.17
2018-11-06T07:22:40.136Z,43.13
2018-11-06T07:27:56.536Z,46.40
2018-11-06T07:38:30.405Z,56.70
2018-11-06T07:43:40.534Z,48.73
2018-11-06T07:48:59.175Z,49.07
2018-11-06T07:54:15.665Z,37.43
2018-11-06T07:59:28.811Z,37.20
2018-11-06T08:10:04.419Z,34.83
2018-11-06T08:15:18.917Z,35.30
2018-11-06T08:20:29.924Z,33.80
2018-11-06T08:25:42.035Z,38.20
2018-11-06T08:31:01.123Z,39.60
2018-11-06T08:37:57.015Z,51.30
2018-11-06T08:55:22.376Z,38.77
2018-11-06T09:00:34.991Z,32.33
2018-11-06T09:22:59.760Z,30.40
2018-11-06T09:28:03.240Z,37.00
2018-11-06T09:33:06.657Z,38.67
2018-11-06T09:38:10.561Z,34.73
2018-11-06T09:43:14.318Z,31.37
2018-11-06T09:48:18.254Z,38.90
2018-11-06T09:53:21.965Z,32.70
2018-11-06T09:58:26.663Z,29.93
2018-11-06T10:03:30.984Z,42.10
2018-11-06T10:08:34.913Z,36.40
2018-11-06T10:13:41.582Z,37.83
2018-11-06T10:18:45.821Z,38.33
2018-11-06T10:23:54.746Z,37.60
2018-11-06T10:28:59.348Z,38.80
2018-11-06T10:34:03.224Z,48.60
2018-11-06T10:39:09.806Z,41.37
2018-11-06T10:44:13.355Z,37.30
2018-11-06T10:49:22.302Z,33.17
2018-11-06T10:54:26.294Z,36.67
2018-11-06T10:59:30.024Z,43.53
2018-11-06T11:04:35.305Z,46.00
2018-11-06T11:09:39.725Z,43.83
2018-11-06T11:14:43.616Z,45.87
2018-11-06T11:19:47.035Z,46.13
2018-11-06T11:24:50.783Z,41.20
2018-11-06T11:29:54.289Z,46.10
2018-11-06T11:34:58.045Z,48.33
2018-11-06T11:40:01.682Z,42.47
2018-11-06T11:45:09.768Z,52.13
2018-11-06T11:50:15.089Z,42.67
2018-11-06T11:55:19.103Z,35.80
2018-11-06T12:00:26.789Z,48.10
2018-11-06T12:05:30.188Z,41.70
2018-11-06T12:10:34.540Z,53.00
2018-11-06T12:15:38.107Z,43.83
2018-11-06T12:20:49.717Z,50.13
2018-11-06T12:25:58.863Z,41.17
2018-11-06T12:31:08.395Z,38.50
2018-11-06T12:36:12.603Z,42.53
2018-11-06T12:41:17.263Z,40.07
2018-11-06T12:46:28.022Z,43.97
2018-11-06T12:51:31.798Z,41.73
2018-11-06T12:56:36.048Z,37.87
2018-11-06T13:01:39.784Z,41.07
2018-11-06T13:06:43.312Z,44.33
2018-11-06T13:11:46.884Z,40.83
2018-11-06T13:16:50.525Z,36.60
2018-11-06T13:21:54.166Z,33.27
2018-11-06T13:26:57.996Z,35.37
2018-11-06T13:32:02.201Z,32.23
2018-11-06T13:37:05.758Z,37.37
2018-11-06T13:42:09.230Z,34.37
2018-11-06T13:47:13.781Z,31.73
2018-11-06T13:52:17.412Z,35.10
2018-11-06T13:57:20.915Z,35.27
2018-11-06T14:02:25.024Z,35.90
2018-11-06T14:07:52.718Z,34.13
2018-11-06T14:12:57.814Z,34.73
2018-11-06T14:18:01.790Z,37.00
2018-11-06T14:23:05.715Z,34.67
2018-11-06T14:28:09.503Z,36.47
2018-11-06T14:33:13.646Z,43.20
2018-11-06T14:38:18.343Z,39.33
2018-11-06T14:43:22.666Z,36.43
2018-11-06T14:48:26.673Z,35.33
2018-11-06T14:53:30.908Z,38.87
2018-11-06T14:58:34.520Z,40.40
2018-11-06T15:03:38.506Z,41.30
2018-11-06T15:08:53.871Z,39.47
2018-11-06T15:14:16.159Z,46.63
2018-11-06T15:19:34.698Z,38.20
2018-11-06T15:24:39.973Z,38.63
2018-11-06T15:29:43.731Z,35.50
2018-11-06T15:34:47.556Z,41.50
2018-11-06T15:39:51.801Z,38.63
2018-11-06T15:44:56.229Z,38.03
2018-11-06T15:50:05.395Z,42.07
2018-11-06T15:55:09.951Z,37.30
2018-11-06T16:00:15.545Z,41.70
2018-11-06T16:05:19.330Z,39.83
2018-11-06T16:10:23.973Z,40.17
2018-11-06T16:15:37.662Z,39.33
2018-11-06T16:20:42.778Z,35.30
2018-11-06T16:25:52.156Z,34.87
2018-11-06T16:30:56.164Z,33.20
2018-11-06T16:36:00.457Z,33.73
2018-11-06T16:41:04.864Z,33.30
2018-11-06T16:46:08.517Z,31.43
2018-11-06T16:51:12.577Z,32.20
2018-11-06T16:56:17.171Z,28.60
2018-11-06T17:01:21.153Z,32.33
2018-11-06T17:06:30.491Z,31.60
2018-11-06T17:11:34.011Z,33.00
2018-11-06T17:16:37.968Z,31.07
2018-11-06T17:21:42.160Z,29.53
2018-11-06T17:26:53.623Z,29.57
2018-11-06T17:31:58.661Z,33.27
2018-11-06T17:37:04.824Z,41.70
2018-11-06T17:42:08.757Z,39.67
2018-11-06T17:47:12.512Z,32.07
2018-11-06T17:52:16.417Z,29.60
2018-11-06T17:57:20.557Z,33.50
2018-11-06T18:02:25.210Z,30.77
2018-11-06T18:07:28.957Z,24.90
2018-11-06T18:12:32.483Z,27.67
2018-11-06T18:17:36.987Z,27.57
2018-11-06T18:22:40.950Z,25.00
2018-11-06T18:27:44.969Z,31.20
2018-11-06T18:32:48.682Z,28.20
2018-11-06T18:37:53.538Z,28.27
2018-11-06T18:42:57.490Z,26.67
2018-11-06T18:48:00.899Z,28.10
2018-11-06T18:53:05.553Z,27.53
2018-11-06T18:58:09.864Z,36.03
2018-11-06T19:03:13.530Z,27.07
2018-11-06T19:08:17.333Z,27.37
2018-11-06T19:13:21.375Z,24.33
2018-11-06T19:18:25.618Z,26.90
2018-11-06T19:23:31.050Z,29.20
2018-11-06T19:28:35.005Z,25.07
2018-11-06T19:33:39.491Z,27.10
2018-11-06T19:38:44.240Z,34.83
2018-11-06T19:48:58.003Z,23.83
2018-11-06T19:54:02.677Z,24.40
2018-11-06T19:59:07.678Z,27.23
2018-11-06T20:04:12.631Z,27.20
2018-11-06T20:09:25.084Z,23.23
2018-11-06T20:14:30.414Z,24.63
2018-11-06T20:19:34.788Z,23.37
2018-11-06T20:24:39.497Z,24.73
2018-11-06T20:29:43.816Z,25.80
2018-11-06T20:34:48.484Z,24.17
2018-11-06T20:45:36.414Z,23.37
2018-11-06T20:50:41.844Z,23.00
2018-11-06T20:55:46.207Z,26.33
2018-11-06T21:00:50.844Z,21.97
2018-11-06T21:05:55.389Z,22.73
2018-11-06T21:11:00.174Z,22.60
2018-11-06T21:16:04.343Z,32.43
2018-11-06T21:21:08.378Z,24.90
2018-11-06T21:26:19.898Z,23.97
2018-11-06T21:31:25.338Z,24.07
2018-11-06T21:36:30.141Z,23.90
2018-11-06T21:41:35.915Z,21.73
2018-11-06T21:46:39.368Z,24.10
2018-11-06T21:51:43.442Z,23.30
2018-11-06T21:56:47.171Z,27.63
2018-11-06T22:01:51.169Z,22.70
2018-11-06T22:06:56.658Z,20.97
2018-11-06T22:12:00.331Z,22.53
2018-11-06T22:17:04.135Z,30.37
2018-11-06T22:22:07.609Z,20.57
2018-11-06T22:27:11.051Z,22.60
2018-11-06T22:32:17.195Z,21.40
2018-11-06T22:37:21.296Z,23.57
2018-11-06T22:42:25.283Z,20.10
2018-11-06T22:47:28.880Z,20.50
2018-11-06T22:52:32.695Z,22.30
2018-11-06T22:57:36.116Z,22.67
2018-11-06T23:02:40.207Z,20.07
2018-11-06T23:07:49.431Z,21.17
2018-11-06T23:12:53.106Z,18.57
2018-11-06T23:17:56.994Z,18.50
2018-11-06T23:23:00.754Z,32.57
2018-11-06T23:28:04.532Z,18.87
2018-11-06T23:33:08.197Z,22.63
2018-11-06T23:38:11.623Z,29.53
2018-11-06T23:43:16.112Z,24.10
2018-11-06T23:48:19.934Z,25.17
2018-11-06T23:53:23.599Z,28.90
2018-11-06T23:58:27.337Z,21.73
